sensor_id;sensor_type;location;lat;lon;timestamp;P1;durP1;ratioP1;P2;durP2;ratioP2
13481;SDS011;6813;60.352;15.746;2022-08-19T00:01:18;10.23;;;6.60;;
13481;SDS011;6813;60.352;15.746;2022-08-19T00:03:43;8.68;;;7.85;;
13481;SDS011;6813;60.352;15.746;2022-08-19T00:06:09;15.63;;;7.97;;
13481;SDS011;6813;60.352;15.746;2022-08-19T00:08:35;12.65;;;7.55;;
13481;SDS011;6813;60.352;15.746;2022-08-19T00:11:01;8.40;;;7.18;;
13481;SDS011;6813;60.352;15.746;2022-08-19T00:13:27;14.05;;;8.43;;
13481;SDS011;6813;60.352;15.746;2022-08-19T00:15:54;8.88;;;6.53;;
13481;SDS011;6813;60.352;15.746;2022-08-19T00:18:20;11.75;;;7.32;;
13481;SDS011;6813;60.352;15.746;2022-08-19T00:20:46;15.02;;;8.43;;
13481;SDS011;6813;60.352;15.746;2022-08-19T00:23:11;12.93;;;7.13;;
13481;SDS011;6813;60.352;15.746;2022-08-19T00:25:37;12.23;;;7.88;;
13481;SDS011;6813;60.352;15.746;2022-08-19T00:28:03;12.27;;;7.50;;
13481;SDS011;6813;60.352;15.746;2022-08-19T00:30:29;22.27;;;8.48;;
13481;SDS011;6813;60.352;15.746;2022-08-19T00:32:56;22.70;;;8.65;;
13481;SDS011;6813;60.352;15.746;2022-08-19T00:35:22;24.00;;;8.30;;
13481;SDS011;6813;60.352;15.746;2022-08-19T00:37:48;17.67;;;8.38;;
13481;SDS011;6813;60.352;15.746;2022-08-19T00:40:16;10.02;;;8.27;;
13481;SDS011;6813;60.352;15.746;2022-08-19T00:42:44;16.05;;;8.13;;
13481;SDS011;6813;60.352;15.746;2022-08-19T00:45:15;31.48;;;8.63;;
13481;SDS011;6813;60.352;15.746;2022-08-19T00:47:45;13.32;;;8.60;;
13481;SDS011;6813;60.352;15.746;2022-08-19T00:50:12;12.55;;;8.57;;
13481;SDS011;6813;60.352;15.746;2022-08-19T00:52:41;14.85;;;9.43;;
13481;SDS011;6813;60.352;15.746;2022-08-19T00:55:13;18.90;;;11.68;;
13481;SDS011;6813;60.352;15.746;2022-08-19T00:58:02;24.65;;;13.63;;
13481;SDS011;6813;60.352;15.746;2022-08-19T01:00:32;10.32;;;8.30;;
13481;SDS011;6813;60.352;15.746;2022-08-19T01:03:01;22.58;;;9.13;;
13481;SDS011;6813;60.352;15.746;2022-08-19T01:05:28;10.75;;;8.10;;
13481;SDS011;6813;60.352;15.746;2022-08-19T01:07:54;10.30;;;8.07;;
13481;SDS011;6813;60.352;15.746;2022-08-19T01:10:23;6.18;;;5.57;;
13481;SDS011;6813;60.352;15.746;2022-08-19T01:12:51;11.02;;;7.80;;
13481;SDS011;6813;60.352;15.746;2022-08-19T01:15:20;20.40;;;7.85;;
13481;SDS011;6813;60.352;15.746;2022-08-19T01:17:49;12.02;;;7.43;;
13481;SDS011;6813;60.352;15.746;2022-08-19T01:20:18;8.30;;;7.50;;
13481;SDS011;6813;60.352;15.746;2022-08-19T01:22:50;17.42;;;7.53;;
13481;SDS011;6813;60.352;15.746;2022-08-19T01:25:30;13.18;;;8.07;;
13481;SDS011;6813;60.352;15.746;2022-08-19T01:27:58;11.90;;;7.28;;
13481;SDS011;6813;60.352;15.746;2022-08-19T01:30:26;11.65;;;6.68;;
13481;SDS011;6813;60.352;15.746;2022-08-19T01:32:55;18.63;;;7.50;;
13481;SDS011;6813;60.352;15.746;2022-08-19T01:35:22;7.18;;;6.50;;
13481;SDS011;6813;60.352;15.746;2022-08-19T01:37:52;7.57;;;6.70;;
13481;SDS011;6813;60.352;15.746;2022-08-19T01:40:19;10.05;;;7.10;;
13481;SDS011;6813;60.352;15.746;2022-08-19T01:42:47;14.73;;;7.15;;
13481;SDS011;6813;60.352;15.746;2022-08-19T01:45:16;8.43;;;7.40;;
13481;SDS011;6813;60.352;15.746;2022-08-19T01:47:45;12.30;;;8.18;;
13481;SDS011;6813;60.352;15.746;2022-08-19T01:50:12;16.02;;;7.60;;
13481;SDS011;6813;60.352;15.746;2022-08-19T01:52:38;17.75;;;6.43;;
13481;SDS011;6813;60.352;15.746;2022-08-19T01:55:07;9.00;;;7.10;;
13481;SDS011;6813;60.352;15.746;2022-08-19T01:57:35;14.13;;;7.55;;
13481;SDS011;6813;60.352;15.746;2022-08-19T02:00:02;9.82;;;6.93;;
13481;SDS011;6813;60.352;15.746;2022-08-19T02:02:31;11.85;;;6.93;;
13481;SDS011;6813;60.352;15.746;2022-08-19T02:04:57;9.70;;;6.90;;
13481;SDS011;6813;60.352;15.746;2022-08-19T02:07:24;10.48;;;6.50;;
13481;SDS011;6813;60.352;15.746;2022-08-19T02:09:50;15.80;;;7.20;;
13481;SDS011;6813;60.352;15.746;2022-08-19T02:12:15;9.85;;;6.78;;
13481;SDS011;6813;60.352;15.746;2022-08-19T02:14:42;9.48;;;6.70;;
13481;SDS011;6813;60.352;15.746;2022-08-19T02:17:08;14.80;;;6.85;;
13481;SDS011;6813;60.352;15.746;2022-08-19T02:19:34;18.15;;;7.10;;
13481;SDS011;6813;60.352;15.746;2022-08-19T02:22:00;14.95;;;6.90;;
13481;SDS011;6813;60.352;15.746;2022-08-19T02:24:26;9.07;;;6.78;;
13481;SDS011;6813;60.352;15.746;2022-08-19T02:26:52;12.15;;;5.90;;
13481;SDS011;6813;60.352;15.746;2022-08-19T02:29:19;17.20;;;6.82;;
13481;SDS011;6813;60.352;15.746;2022-08-19T02:31:45;7.18;;;6.22;;
13481;SDS011;6813;60.352;15.746;2022-08-19T02:34:10;8.45;;;6.60;;
13481;SDS011;6813;60.352;15.746;2022-08-19T02:36:36;9.60;;;6.75;;
13481;SDS011;6813;60.352;15.746;2022-08-19T02:39:02;10.13;;;6.55;;
13481;SDS011;6813;60.352;15.746;2022-08-19T02:41:30;7.25;;;6.38;;
13481;SDS011;6813;60.352;15.746;2022-08-19T02:43:58;6.32;;;5.72;;
13481;SDS011;6813;60.352;15.746;2022-08-19T02:46:28;6.22;;;5.63;;
13481;SDS011;6813;60.352;15.746;2022-08-19T02:48:57;14.43;;;6.43;;
13481;SDS011;6813;60.352;15.746;2022-08-19T02:51:34;6.28;;;5.68;;
13481;SDS011;6813;60.352;15.746;2022-08-19T02:54:02;9.32;;;5.85;;
13481;SDS011;6813;60.352;15.746;2022-08-19T02:56:29;6.85;;;6.13;;
13481;SDS011;6813;60.352;15.746;2022-08-19T02:58:55;6.65;;;6.05;;
13481;SDS011;6813;60.352;15.746;2022-08-19T03:01:26;6.10;;;5.60;;
13481;SDS011;6813;60.352;15.746;2022-08-19T03:03:54;6.85;;;5.72;;
13481;SDS011;6813;60.352;15.746;2022-08-19T03:06:20;5.60;;;5.05;;
13481;SDS011;6813;60.352;15.746;2022-08-19T03:08:47;6.90;;;6.15;;
13481;SDS011;6813;60.352;15.746;2022-08-19T03:11:16;11.27;;;5.90;;
13481;SDS011;6813;60.352;15.746;2022-08-19T03:13:43;10.65;;;5.70;;
13481;SDS011;6813;60.352;15.746;2022-08-19T03:16:10;6.45;;;5.85;;
13481;SDS011;6813;60.352;15.746;2022-08-19T03:18:37;7.47;;;5.95;;
13481;SDS011;6813;60.352;15.746;2022-08-19T03:21:03;7.28;;;5.43;;
13481;SDS011;6813;60.352;15.746;2022-08-19T03:23:28;8.10;;;5.95;;
13481;SDS011;6813;60.352;15.746;2022-08-19T03:25:54;7.03;;;6.13;;
13481;SDS011;6813;60.352;15.746;2022-08-19T03:28:20;5.95;;;5.45;;
13481;SDS011;6813;60.352;15.746;2022-08-19T03:31:00;6.28;;;5.70;;
13481;SDS011;6813;60.352;15.746;2022-08-19T03:33:28;5.60;;;5.10;;
13481;SDS011;6813;60.352;15.746;2022-08-19T03:38:32;5.47;;;5.03;;
13481;SDS011;6813;60.352;15.746;2022-08-19T03:41:01;5.90;;;5.40;;
13481;SDS011;6813;60.352;15.746;2022-08-19T03:43:31;9.98;;;6.10;;
13481;SDS011;6813;60.352;15.746;2022-08-19T03:46:00;6.05;;;5.55;;
13481;SDS011;6813;60.352;15.746;2022-08-19T03:48:29;5.82;;;5.32;;
13481;SDS011;6813;60.352;15.746;2022-08-19T03:50:55;6.40;;;5.70;;
13481;SDS011;6813;60.352;15.746;2022-08-19T03:53:22;6.82;;;6.20;;
13481;SDS011;6813;60.352;15.746;2022-08-19T03:55:48;11.68;;;5.75;;
13481;SDS011;6813;60.352;15.746;2022-08-19T03:58:13;10.55;;;6.15;;
13481;SDS011;6813;60.352;15.746;2022-08-19T04:00:41;6.43;;;5.88;;
13481;SDS011;6813;60.352;15.746;2022-08-19T04:03:08;8.07;;;6.35;;
13481;SDS011;6813;60.352;15.746;2022-08-19T04:05:33;9.25;;;6.30;;
13481;SDS011;6813;60.352;15.746;2022-08-19T04:07:59;7.38;;;5.75;;
13481;SDS011;6813;60.352;15.746;2022-08-19T04:10:25;16.13;;;5.65;;
13481;SDS011;6813;60.352;15.746;2022-08-19T04:12:53;12.25;;;6.32;;
13481;SDS011;6813;60.352;15.746;2022-08-19T04:15:19;17.08;;;7.13;;
13481;SDS011;6813;60.352;15.746;2022-08-19T04:17:45;22.45;;;6.13;;
13481;SDS011;6813;60.352;15.746;2022-08-19T04:20:11;7.20;;;6.50;;
13481;SDS011;6813;60.352;15.746;2022-08-19T04:22:37;10.15;;;6.40;;
13481;SDS011;6813;60.352;15.746;2022-08-19T04:25:02;11.45;;;7.20;;
13481;SDS011;6813;60.352;15.746;2022-08-19T04:27:28;39.88;;;7.35;;
13481;SDS011;6813;60.352;15.746;2022-08-19T04:29:56;10.90;;;6.22;;
13481;SDS011;6813;60.352;15.746;2022-08-19T04:32:22;12.75;;;7.38;;
13481;SDS011;6813;60.352;15.746;2022-08-19T04:34:48;22.30;;;6.32;;
13481;SDS011;6813;60.352;15.746;2022-08-19T04:37:14;16.50;;;6.75;;
13481;SDS011;6813;60.352;15.746;2022-08-19T04:39:40;10.95;;;6.95;;
13481;SDS011;6813;60.352;15.746;2022-08-19T04:42:24;17.60;;;7.50;;
13481;SDS011;6813;60.352;15.746;2022-08-19T04:45:09;15.68;;;7.68;;
13481;SDS011;6813;60.352;15.746;2022-08-19T04:47:37;18.15;;;7.53;;
13481;SDS011;6813;60.352;15.746;2022-08-19T04:50:04;8.38;;;7.55;;
13481;SDS011;6813;60.352;15.746;2022-08-19T04:52:30;25.77;;;7.88;;
13481;SDS011;6813;60.352;15.746;2022-08-19T04:54:57;38.25;;;8.02;;
13481;SDS011;6813;60.352;15.746;2022-08-19T04:57:23;12.70;;;8.38;;
13481;SDS011;6813;60.352;15.746;2022-08-19T04:59:53;14.85;;;8.80;;
13481;SDS011;6813;60.352;15.746;2022-08-19T05:02:19;14.05;;;8.90;;
13481;SDS011;6813;60.352;15.746;2022-08-19T05:04:47;13.35;;;8.23;;
13481;SDS011;6813;60.352;15.746;2022-08-19T05:07:13;12.27;;;8.65;;
13481;SDS011;6813;60.352;15.746;2022-08-19T05:09:39;12.57;;;8.20;;
13481;SDS011;6813;60.352;15.746;2022-08-19T05:12:05;15.60;;;8.40;;
13481;SDS011;6813;60.352;15.746;2022-08-19T05:14:31;39.05;;;9.10;;
13481;SDS011;6813;60.352;15.746;2022-08-19T05:16:56;18.98;;;9.15;;
13481;SDS011;6813;60.352;15.746;2022-08-19T05:19:22;13.10;;;8.43;;
13481;SDS011;6813;60.352;15.746;2022-08-19T05:22:06;14.30;;;8.07;;
13481;SDS011;6813;60.352;15.746;2022-08-19T05:25:12;13.70;;;8.10;;
13481;SDS011;6813;60.352;15.746;2022-08-19T05:27:43;12.93;;;7.93;;
13481;SDS011;6813;60.352;15.746;2022-08-19T05:30:09;17.25;;;9.38;;
13481;SDS011;6813;60.352;15.746;2022-08-19T05:32:36;23.42;;;8.95;;
13481;SDS011;6813;60.352;15.746;2022-08-19T05:35:03;9.85;;;8.35;;
13481;SDS011;6813;60.352;15.746;2022-08-19T05:37:29;11.65;;;8.50;;
13481;SDS011;6813;60.352;15.746;2022-08-19T05:39:55;19.75;;;8.60;;
13481;SDS011;6813;60.352;15.746;2022-08-19T05:42:21;11.40;;;7.63;;
13481;SDS011;6813;60.352;15.746;2022-08-19T05:44:48;10.82;;;8.48;;
13481;SDS011;6813;60.352;15.746;2022-08-19T05:47:14;9.30;;;8.35;;
13481;SDS011;6813;60.352;15.746;2022-08-19T05:49:41;8.82;;;8.02;;
13481;SDS011;6813;60.352;15.746;2022-08-19T05:52:09;9.98;;;8.95;;
13481;SDS011;6813;60.352;15.746;2022-08-19T05:54:37;14.77;;;8.43;;
13481;SDS011;6813;60.352;15.746;2022-08-19T05:57:06;12.57;;;8.48;;
13481;SDS011;6813;60.352;15.746;2022-08-19T05:59:33;12.05;;;8.50;;
13481;SDS011;6813;60.352;15.746;2022-08-19T06:02:00;10.15;;;8.82;;
13481;SDS011;6813;60.352;15.746;2022-08-19T06:04:27;14.93;;;8.82;;
13481;SDS011;6813;60.352;15.746;2022-08-19T06:06:53;9.80;;;8.52;;
13481;SDS011;6813;60.352;15.746;2022-08-19T06:09:20;14.85;;;9.05;;
13481;SDS011;6813;60.352;15.746;2022-08-19T06:11:48;13.40;;;8.73;;
13481;SDS011;6813;60.352;15.746;2022-08-19T06:14:23;22.40;;;9.77;;
13481;SDS011;6813;60.352;15.746;2022-08-19T06:16:51;20.83;;;9.02;;
13481;SDS011;6813;60.352;15.746;2022-08-19T06:19:18;12.95;;;10.15;;
13481;SDS011;6813;60.352;15.746;2022-08-19T06:21:46;22.30;;;9.60;;
13481;SDS011;6813;60.352;15.746;2022-08-19T06:24:14;17.30;;;10.45;;
13481;SDS011;6813;60.352;15.746;2022-08-19T06:26:41;15.20;;;9.98;;
13481;SDS011;6813;60.352;15.746;2022-08-19T06:29:09;23.00;;;10.63;;
13481;SDS011;6813;60.352;15.746;2022-08-19T06:31:36;44.40;;;10.82;;
13481;SDS011;6813;60.352;15.746;2022-08-19T06:34:06;18.02;;;10.23;;
13481;SDS011;6813;60.352;15.746;2022-08-19T06:36:45;12.05;;;10.18;;
13481;SDS011;6813;60.352;15.746;2022-08-19T06:39:14;13.32;;;10.52;;
13481;SDS011;6813;60.352;15.746;2022-08-19T06:42:03;13.18;;;10.10;;
13481;SDS011;6813;60.352;15.746;2022-08-19T06:44:33;12.50;;;11.20;;
13481;SDS011;6813;60.352;15.746;2022-08-19T06:47:04;12.02;;;10.27;;
13481;SDS011;6813;60.352;15.746;2022-08-19T06:49:31;11.50;;;10.43;;
13481;SDS011;6813;60.352;15.746;2022-08-19T06:51:58;14.35;;;10.95;;
13481;SDS011;6813;60.352;15.746;2022-08-19T06:54:24;11.73;;;10.63;;
13481;SDS011;6813;60.352;15.746;2022-08-19T06:56:51;12.13;;;10.85;;
13481;SDS011;6813;60.352;15.746;2022-08-19T06:59:18;11.70;;;10.43;;
13481;SDS011;6813;60.352;15.746;2022-08-19T07:01:47;12.18;;;10.90;;
13481;SDS011;6813;60.352;15.746;2022-08-19T07:04:18;12.05;;;10.85;;
13481;SDS011;6813;60.352;15.746;2022-08-19T07:06:46;12.55;;;11.35;;
13481;SDS011;6813;60.352;15.746;2022-08-19T07:09:13;11.32;;;10.32;;
13481;SDS011;6813;60.352;15.746;2022-08-19T07:11:44;12.30;;;11.10;;
13481;SDS011;6813;60.352;15.746;2022-08-19T07:14:12;12.65;;;11.45;;
13481;SDS011;6813;60.352;15.746;2022-08-19T07:16:42;12.40;;;11.05;;
13481;SDS011;6813;60.352;15.746;2022-08-19T07:19:10;13.48;;;12.05;;
13481;SDS011;6813;60.352;15.746;2022-08-19T07:21:37;13.80;;;12.40;;
13481;SDS011;6813;60.352;15.746;2022-08-19T07:24:03;12.55;;;11.25;;
13481;SDS011;6813;60.352;15.746;2022-08-19T07:26:30;15.00;;;13.32;;
13481;SDS011;6813;60.352;15.746;2022-08-19T07:28:58;13.63;;;12.30;;
13481;SDS011;6813;60.352;15.746;2022-08-19T07:31:27;14.63;;;12.68;;
13481;SDS011;6813;60.352;15.746;2022-08-19T07:33:53;14.80;;;13.15;;
13481;SDS011;6813;60.352;15.746;2022-08-19T07:36:22;14.60;;;13.10;;
13481;SDS011;6813;60.352;15.746;2022-08-19T07:38:54;14.73;;;13.25;;
13481;SDS011;6813;60.352;15.746;2022-08-19T07:41:20;14.32;;;12.82;;
13481;SDS011;6813;60.352;15.746;2022-08-19T07:43:49;17.42;;;14.10;;
13481;SDS011;6813;60.352;15.746;2022-08-19T07:46:15;15.48;;;13.93;;
13481;SDS011;6813;60.352;15.746;2022-08-19T07:48:42;15.63;;;14.13;;
13481;SDS011;6813;60.352;15.746;2022-08-19T07:51:15;16.50;;;14.82;;
13481;SDS011;6813;60.352;15.746;2022-08-19T07:53:43;15.07;;;13.60;;
13481;SDS011;6813;60.352;15.746;2022-08-19T07:56:10;16.35;;;14.68;;
13481;SDS011;6813;60.352;15.746;2022-08-19T07:58:38;19.98;;;15.55;;
13481;SDS011;6813;60.352;15.746;2022-08-19T08:01:07;16.85;;;15.00;;
13481;SDS011;6813;60.352;15.746;2022-08-19T08:03:36;15.90;;;14.27;;
13481;SDS011;6813;60.352;15.746;2022-08-19T08:06:21;17.85;;;16.05;;
13481;SDS011;6813;60.352;15.746;2022-08-19T08:09:06;17.15;;;15.38;;
13481;SDS011;6813;60.352;15.746;2022-08-19T08:15:05;17.10;;;15.35;;
13481;SDS011;6813;60.352;15.746;2022-08-19T08:17:13;16.23;;;14.52;;
13481;SDS011;6813;60.352;15.746;2022-08-19T08:19:42;17.52;;;15.48;;
13481;SDS011;6813;60.352;15.746;2022-08-19T08:22:09;17.25;;;15.65;;
13481;SDS011;6813;60.352;15.746;2022-08-19T08:25:09;17.77;;;16.08;;
13481;SDS011;6813;60.352;15.746;2022-08-19T08:27:40;17.80;;;15.98;;
13481;SDS011;6813;60.352;15.746;2022-08-19T08:30:18;18.13;;;16.25;;
13481;SDS011;6813;60.352;15.746;2022-08-19T08:32:46;17.85;;;16.15;;
13481;SDS011;6813;60.352;15.746;2022-08-19T08:35:13;17.70;;;15.90;;
13481;SDS011;6813;60.352;15.746;2022-08-19T08:37:41;18.73;;;16.92;;
13481;SDS011;6813;60.352;15.746;2022-08-19T08:42:57;18.02;;;16.30;;
13481;SDS011;6813;60.352;15.746;2022-08-19T08:45:27;19.67;;;17.63;;
13481;SDS011;6813;60.352;15.746;2022-08-19T08:47:55;18.55;;;16.83;;
13481;SDS011;6813;60.352;15.746;2022-08-19T08:53:01;19.08;;;17.10;;
13481;SDS011;6813;60.352;15.746;2022-08-19T08:55:29;19.00;;;17.30;;
13481;SDS011;6813;60.352;15.746;2022-08-19T08:57:59;18.42;;;16.52;;
13481;SDS011;6813;60.352;15.746;2022-08-19T09:00:29;19.13;;;17.13;;
13481;SDS011;6813;60.352;15.746;2022-08-19T09:02:58;18.42;;;16.52;;
13481;SDS011;6813;60.352;15.746;2022-08-19T09:05:30;18.17;;;16.38;;
13481;SDS011;6813;60.352;15.746;2022-08-19T09:08:07;19.27;;;17.40;;
13481;SDS011;6813;60.352;15.746;2022-08-19T09:10:39;18.88;;;17.02;;
13481;SDS011;6813;60.352;15.746;2022-08-19T09:16:05;19.67;;;17.83;;
13481;SDS011;6813;60.352;15.746;2022-08-19T09:21:12;19.17;;;17.30;;
13481;SDS011;6813;60.352;15.746;2022-08-19T09:23:39;20.13;;;18.20;;
13481;SDS011;6813;60.352;15.746;2022-08-19T09:26:09;19.15;;;16.88;;
13481;SDS011;6813;60.352;15.746;2022-08-19T09:28:39;19.85;;;18.05;;
13481;SDS011;6813;60.352;15.746;2022-08-19T09:31:08;21.60;;;18.48;;
13481;SDS011;6813;60.352;15.746;2022-08-19T09:33:44;19.42;;;17.63;;
13481;SDS011;6813;60.352;15.746;2022-08-19T09:36:12;19.45;;;17.55;;
13481;SDS011;6813;60.352;15.746;2022-08-19T09:38:40;20.88;;;18.77;;
13481;SDS011;6813;60.352;15.746;2022-08-19T09:41:07;19.92;;;18.02;;
13481;SDS011;6813;60.352;15.746;2022-08-19T09:43:37;19.08;;;17.13;;
13481;SDS011;6813;60.352;15.746;2022-08-19T09:46:04;20.13;;;18.00;;
13481;SDS011;6813;60.352;15.746;2022-08-19T09:48:40;19.25;;;17.50;;
13481;SDS011;6813;60.352;15.746;2022-08-19T09:51:08;19.83;;;17.90;;
13481;SDS011;6813;60.352;15.746;2022-08-19T09:53:36;19.60;;;17.70;;
13481;SDS011;6813;60.352;15.746;2022-08-19T09:56:03;20.33;;;18.33;;
13481;SDS011;6813;60.352;15.746;2022-08-19T09:58:30;18.35;;;16.65;;
13481;SDS011;6813;60.352;15.746;2022-08-19T10:01:00;19.83;;;17.75;;
13481;SDS011;6813;60.352;15.746;2022-08-19T10:03:27;19.45;;;17.55;;
13481;SDS011;6813;60.352;15.746;2022-08-19T10:05:54;19.25;;;17.30;;
13481;SDS011;6813;60.352;15.746;2022-08-19T10:08:24;19.67;;;17.42;;
13481;SDS011;6813;60.352;15.746;2022-08-19T10:10:52;19.25;;;17.17;;
13481;SDS011;6813;60.352;15.746;2022-08-19T10:13:20;18.67;;;16.88;;
13481;SDS011;6813;60.352;15.746;2022-08-19T10:15:49;19.20;;;17.27;;
13481;SDS011;6813;60.352;15.746;2022-08-19T10:18:19;20.75;;;18.55;;
13481;SDS011;6813;60.352;15.746;2022-08-19T10:20:46;19.73;;;17.83;;
13481;SDS011;6813;60.352;15.746;2022-08-19T10:23:13;19.52;;;17.25;;
13481;SDS011;6813;60.352;15.746;2022-08-19T10:25:40;19.13;;;17.40;;
13481;SDS011;6813;60.352;15.746;2022-08-19T10:28:06;19.20;;;17.35;;
13481;SDS011;6813;60.352;15.746;2022-08-19T10:30:33;17.55;;;15.85;;
13481;SDS011;6813;60.352;15.746;2022-08-19T10:33:01;17.77;;;15.38;;
13481;SDS011;6813;60.352;15.746;2022-08-19T10:35:27;17.90;;;16.00;;
13481;SDS011;6813;60.352;15.746;2022-08-19T10:37:54;16.10;;;14.50;;
13481;SDS011;6813;60.352;15.746;2022-08-19T10:40:24;16.67;;;15.18;;
13481;SDS011;6813;60.352;15.746;2022-08-19T10:42:51;17.23;;;15.63;;
13481;SDS011;6813;60.352;15.746;2022-08-19T10:45:17;16.88;;;15.23;;
13481;SDS011;6813;60.352;15.746;2022-08-19T10:47:43;15.45;;;14.05;;
13481;SDS011;6813;60.352;15.746;2022-08-19T10:50:09;16.05;;;14.40;;
13481;SDS011;6813;60.352;15.746;2022-08-19T10:52:53;16.05;;;14.60;;
13481;SDS011;6813;60.352;15.746;2022-08-19T10:55:22;24.13;;;17.42;;
13481;SDS011;6813;60.352;15.746;2022-08-19T10:58:15;9.40;;;8.25;;
13481;SDS011;6813;60.352;15.746;2022-08-19T11:00:51;14.20;;;12.80;;
13481;SDS011;6813;60.352;15.746;2022-08-19T11:03:21;18.58;;;15.75;;
13481;SDS011;6813;60.352;15.746;2022-08-19T11:05:58;17.05;;;15.00;;
13481;SDS011;6813;60.352;15.746;2022-08-19T11:08:25;17.67;;;16.00;;
13481;SDS011;6813;60.352;15.746;2022-08-19T11:10:52;18.92;;;16.92;;
13481;SDS011;6813;60.352;15.746;2022-08-19T11:13:25;19.63;;;15.45;;
13481;SDS011;6813;60.352;15.746;2022-08-19T11:15:56;18.27;;;15.32;;
13481;SDS011;6813;60.352;15.746;2022-08-19T11:18:29;18.13;;;16.23;;
13481;SDS011;6813;60.352;15.746;2022-08-19T11:21:04;17.67;;;16.10;;
13481;SDS011;6813;60.352;15.746;2022-08-19T11:23:33;17.35;;;15.85;;
13481;SDS011;6813;60.352;15.746;2022-08-19T11:25:59;16.75;;;15.05;;
13481;SDS011;6813;60.352;15.746;2022-08-19T11:28:26;17.13;;;15.33;;
13481;SDS011;6813;60.352;15.746;2022-08-19T11:30:51;16.35;;;14.55;;
13481;SDS011;6813;60.352;15.746;2022-08-19T11:33:17;17.10;;;15.35;;
13481;SDS011;6813;60.352;15.746;2022-08-19T11:35:44;16.40;;;15.00;;
13481;SDS011;6813;60.352;15.746;2022-08-19T11:38:10;16.55;;;15.10;;
13481;SDS011;6813;60.352;15.746;2022-08-19T11:40:38;15.35;;;14.00;;
13481;SDS011;6813;60.352;15.746;2022-08-19T11:43:05;16.10;;;14.57;;
13481;SDS011;6813;60.352;15.746;2022-08-19T11:45:31;16.63;;;15.10;;
13481;SDS011;6813;60.352;15.746;2022-08-19T11:47:56;15.43;;;13.90;;
13481;SDS011;6813;60.352;15.746;2022-08-19T11:50:23;15.68;;;14.38;;
13481;SDS011;6813;60.352;15.746;2022-08-19T11:52:49;15.85;;;14.25;;
13481;SDS011;6813;60.352;15.746;2022-08-19T11:55:19;17.30;;;15.63;;
13481;SDS011;6813;60.352;15.746;2022-08-19T11:57:46;15.48;;;13.65;;
13481;SDS011;6813;60.352;15.746;2022-08-19T12:00:13;15.55;;;13.85;;
13481;SDS011;6813;60.352;15.746;2022-08-19T12:02:39;15.27;;;13.85;;
13481;SDS011;6813;60.352;15.746;2022-08-19T12:05:06;14.32;;;13.00;;
13481;SDS011;6813;60.352;15.746;2022-08-19T12:07:33;14.70;;;13.38;;
13481;SDS011;6813;60.352;15.746;2022-08-19T12:09:59;15.88;;;14.00;;
13481;SDS011;6813;60.352;15.746;2022-08-19T12:12:25;15.70;;;13.98;;
13481;SDS011;6813;60.352;15.746;2022-08-19T12:14:52;15.05;;;13.75;;
13481;SDS011;6813;60.352;15.746;2022-08-19T12:17:24;15.23;;;13.18;;
13481;SDS011;6813;60.352;15.746;2022-08-19T12:19:51;14.35;;;12.95;;
13481;SDS011;6813;60.352;15.746;2022-08-19T12:22:17;16.25;;;14.75;;
13481;SDS011;6813;60.352;15.746;2022-08-19T12:24:43;15.00;;;13.40;;
13481;SDS011;6813;60.352;15.746;2022-08-19T12:27:09;14.23;;;12.85;;
13481;SDS011;6813;60.352;15.746;2022-08-19T12:29:35;14.75;;;13.27;;
13481;SDS011;6813;60.352;15.746;2022-08-19T12:32:01;15.27;;;13.73;;
13481;SDS011;6813;60.352;15.746;2022-08-19T12:34:28;14.60;;;13.13;;
13481;SDS011;6813;60.352;15.746;2022-08-19T12:36:56;15.00;;;13.60;;
13481;SDS011;6813;60.352;15.746;2022-08-19T12:39:26;15.43;;;13.80;;
13481;SDS011;6813;60.352;15.746;2022-08-19T12:41:52;14.50;;;12.70;;
13481;SDS011;6813;60.352;15.746;2022-08-19T12:44:19;14.15;;;12.95;;
13481;SDS011;6813;60.352;15.746;2022-08-19T12:46:46;14.88;;;13.27;;
13481;SDS011;6813;60.352;15.746;2022-08-19T12:49:12;14.15;;;12.57;;
13481;SDS011;6813;60.352;15.746;2022-08-19T12:51:39;14.13;;;12.73;;
13481;SDS011;6813;60.352;15.746;2022-08-19T12:54:07;14.85;;;13.13;;
13481;SDS011;6813;60.352;15.746;2022-08-19T12:56:33;15.43;;;13.82;;
13481;SDS011;6813;60.352;15.746;2022-08-19T12:59:02;15.05;;;13.48;;
13481;SDS011;6813;60.352;15.746;2022-08-19T13:01:29;15.32;;;13.75;;
13481;SDS011;6813;60.352;15.746;2022-08-19T13:03:57;14.77;;;13.25;;
13481;SDS011;6813;60.352;15.746;2022-08-19T13:06:24;16.80;;;13.35;;
13481;SDS011;6813;60.352;15.746;2022-08-19T13:08:50;14.88;;;12.70;;
13481;SDS011;6813;60.352;15.746;2022-08-19T13:11:17;14.35;;;12.93;;
13481;SDS011;6813;60.352;15.746;2022-08-19T13:13:46;15.45;;;13.90;;
13481;SDS011;6813;60.352;15.746;2022-08-19T13:16:16;13.95;;;12.57;;
13481;SDS011;6813;60.352;15.746;2022-08-19T13:18:42;13.95;;;12.68;;
13481;SDS011;6813;60.352;15.746;2022-08-19T13:21:11;14.23;;;12.82;;
13481;SDS011;6813;60.352;15.746;2022-08-19T13:23:38;14.05;;;12.60;;
13481;SDS011;6813;60.352;15.746;2022-08-19T13:26:05;14.38;;;12.93;;
13481;SDS011;6813;60.352;15.746;2022-08-19T13:28:33;14.05;;;12.70;;
13481;SDS011;6813;60.352;15.746;2022-08-19T13:31:19;14.48;;;12.68;;
13481;SDS011;6813;60.352;15.746;2022-08-19T13:34:05;14.38;;;12.93;;
13481;SDS011;6813;60.352;15.746;2022-08-19T13:36:32;13.80;;;12.45;;
13481;SDS011;6813;60.352;15.746;2022-08-19T13:38:58;14.13;;;12.70;;
13481;SDS011;6813;60.352;15.746;2022-08-19T13:41:24;14.63;;;13.23;;
13481;SDS011;6813;60.352;15.746;2022-08-19T13:43:51;14.10;;;12.35;;
13481;SDS011;6813;60.352;15.746;2022-08-19T13:46:18;15.45;;;12.95;;
13481;SDS011;6813;60.352;15.746;2022-08-19T13:48:44;13.90;;;12.40;;
13481;SDS011;6813;60.352;15.746;2022-08-19T13:51:11;15.13;;;13.00;;
13481;SDS011;6813;60.352;15.746;2022-08-19T13:53:37;14.73;;;13.20;;
13481;SDS011;6813;60.352;15.746;2022-08-19T13:56:07;13.57;;;12.40;;
13481;SDS011;6813;60.352;15.746;2022-08-19T13:58:35;13.45;;;12.30;;
13481;SDS011;6813;60.352;15.746;2022-08-19T14:01:02;14.10;;;12.77;;
13481;SDS011;6813;60.352;15.746;2022-08-19T14:03:30;15.07;;;13.68;;
13481;SDS011;6813;60.352;15.746;2022-08-19T14:05:58;14.73;;;12.13;;
13481;SDS011;6813;60.352;15.746;2022-08-19T14:08:24;15.00;;;12.57;;
13481;SDS011;6813;60.352;15.746;2022-08-19T14:10:52;13.45;;;11.93;;
13481;SDS011;6813;60.352;15.746;2022-08-19T14:13:20;14.23;;;12.68;;
13481;SDS011;6813;60.352;15.746;2022-08-19T14:15:48;13.73;;;12.35;;
13481;SDS011;6813;60.352;15.746;2022-08-19T14:18:15;13.32;;;11.93;;
13481;SDS011;6813;60.352;15.746;2022-08-19T14:20:41;13.18;;;11.98;;
13481;SDS011;6813;60.352;15.746;2022-08-19T14:23:07;13.88;;;12.18;;
13481;SDS011;6813;60.352;15.746;2022-08-19T14:25:33;12.70;;;11.63;;
13481;SDS011;6813;60.352;15.746;2022-08-19T14:28:00;14.98;;;11.60;;
13481;SDS011;6813;60.352;15.746;2022-08-19T14:30:30;13.10;;;11.90;;
13481;SDS011;6813;60.352;15.746;2022-08-19T14:32:59;13.20;;;12.07;;
13481;SDS011;6813;60.352;15.746;2022-08-19T14:35:26;13.35;;;11.55;;
13481;SDS011;6813;60.352;15.746;2022-08-19T14:37:53;13.15;;;11.85;;
13481;SDS011;6813;60.352;15.746;2022-08-19T14:40:20;13.60;;;11.80;;
13481;SDS011;6813;60.352;15.746;2022-08-19T14:42:54;13.00;;;11.80;;
13481;SDS011;6813;60.352;15.746;2022-08-19T14:45:24;13.10;;;11.75;;
13481;SDS011;6813;60.352;15.746;2022-08-19T14:47:53;13.50;;;12.13;;
13481;SDS011;6813;60.352;15.746;2022-08-19T14:50:19;12.98;;;11.75;;
13481;SDS011;6813;60.352;15.746;2022-08-19T14:52:46;12.93;;;11.73;;